This is the latest recevied weather packets stored in our database for station/object CT1ETE-13. If no packets are shown the sender has not sent any weather packets the latest 10 day(s).
| Time | Temp. | Humidity | Pressure | Rain* | Wind** | Luminosity | Snow |
|---|---|---|---|---|---|---|---|
| 1787664941 | 20.56° C | 84% | 1015.4 hPa | 1.52 mm | - | 1436 W/m² | - |
| 1787664041 | 21.67° C | 78% | 1015.2 hPa | 0 mm | - | 1419 W/m² | - |
| 1787663141 | 21.67° C | 74% | 1015 hPa | 0 mm | - | 1413 W/m² | - |
| 1787662302 | 21.67° C | 78% | 1015.2 hPa | 0 mm | - | 1417 W/m² | - |
| 1787661341 | 21.67° C | 78% | 1015.4 hPa | 0 mm | - | 1417 W/m² | - |
| 1787660501 | 21.67° C | 78% | 1015.4 hPa | 0.25 mm | - | 1415 W/m² | - |
| 1787659541 | 21.67° C | 77% | 1015.4 hPa | 0.25 mm | - | 1415 W/m² | - |
| 1787658642 | 21.11° C | 82% | 1015.5 hPa | 0.25 mm | - | 1433 W/m² | - |
| 1787657741 | 20.56° C | 81% | 1015.6 hPa | 0.25 mm | - | 1433 W/m² | - |
| 1787656842 | 21.11° C | 81% | 1015.5 hPa | 0 mm | - | 1426 W/m² | - |
| 1787655942 | 20.56° C | 82% | 1015.5 hPa | 0 mm | - | 1434 W/m² | - |
| 1787655042 | 20.56° C | 83% | 1015.6 hPa | 0 mm | - | 1438 W/m² | - |
| 1787654141 | 20.56° C | 83% | 1015.6 hPa | 0 mm | - | 1440 W/m² | - |
| 1787653241 | 20° C | 82% | 1015.7 hPa | 0 mm | - | 1448 W/m² | - |
| 1787652341 | 19.44° C | 81% | 1015.7 hPa | 0 mm | - | 1455 W/m² | - |
| 1787651441 | 18.89° C | 74% | 1015.7 hPa | 0 mm | - | 1459 W/m² | - |
| 1787650541 | 18.33° C | 74% | 1015.5 hPa | 0 mm | - | 1463 W/m² | - |
| 1787649653 | 18.33° C | 77% | 1015.2 hPa | 0 mm | - | 1463 W/m² | - |
| 1787648740 | 18.33° C | 75% | 1015 hPa | 0 mm | - | 1463 W/m² | - |
| 1787647839 | 18.89° C | 70% | 1014.9 hPa | 0 mm | - | 1459 W/m² | - |
| 1787646999 | 18.89° C | 60% | 1014.8 hPa | 0 mm | - | 1457 W/m² | - |
| 1787646039 | 18.33° C | 54% | 1014.9 hPa | 0 mm | - | 1459 W/m² | - |
| 1787645139 | 18.33° C | 54% | 1014.9 hPa | 0 mm | - | 1459 W/m² | - |
| 1787644239 | 18.33° C | 54% | 1014.8 hPa | 0 mm | - | 1461 W/m² | - |
| 1787643339 | 18.33° C | 55% | 1014.9 hPa | 0 mm | - | 1463 W/m² | - |
* Rain latest hour (hover to see other rain measurements)
** Current wind speed in m/s (hover to see current wind gust speed)